sensor_id;sensor_type;location;lat;lon;timestamp;pressure;altitude;pressure_sealevel;temperature;humidity
63306;BME280;50735;52.060;1.248;2022-10-30T00:02:01;101195.96;;;14.46;62.78
63306;BME280;50735;52.060;1.248;2022-10-30T00:04:27;101191.26;;;14.48;62.93
63306;BME280;50735;52.060;1.248;2022-10-30T00:06:54;101184.25;;;14.99;62.39
63306;BME280;50735;52.060;1.248;2022-10-30T00:09:21;101176.46;;;14.94;62.00
63306;BME280;50735;52.060;1.248;2022-10-30T00:11:49;101181.23;;;14.74;62.07
63306;BME280;50735;52.060;1.248;2022-10-30T00:14:15;101193.83;;;15.02;61.80
63306;BME280;50735;52.060;1.248;2022-10-30T00:16:42;101199.21;;;14.84;61.73
63306;BME280;50735;52.060;1.248;2022-10-30T00:19:09;101195.59;;;14.64;62.31
63306;BME280;50735;52.060;1.248;2022-10-30T00:21:36;101202.54;;;15.00;62.34
63306;BME280;50735;52.060;1.248;2022-10-30T00:24:03;101210.69;;;14.79;61.74
63306;BME280;50735;52.060;1.248;2022-10-30T00:26:30;101218.61;;;14.60;62.55
63306;BME280;50735;52.060;1.248;2022-10-30T00:28:57;101213.14;;;14.75;61.95
63306;BME280;50735;52.060;1.248;2022-10-30T00:31:23;101200.29;;;14.82;61.70
63306;BME280;50735;52.060;1.248;2022-10-30T00:33:51;101195.02;;;15.08;62.21
63306;BME280;50735;52.060;1.248;2022-10-30T00:36:18;101184.60;;;15.14;61.99
63306;BME280;50735;52.060;1.248;2022-10-30T00:38:45;101194.39;;;14.84;61.79
63306;BME280;50735;52.060;1.248;2022-10-30T00:41:14;101197.39;;;14.94;61.94
63306;BME280;50735;52.060;1.248;2022-10-30T00:43:41;101208.88;;;14.51;62.59
63306;BME280;50735;52.060;1.248;2022-10-30T00:46:16;101213.37;;;14.54;62.58
63306;BME280;50735;52.060;1.248;2022-10-30T00:48:48;101219.14;;;14.65;62.80
63306;BME280;50735;52.060;1.248;2022-10-30T00:51:17;101224.40;;;14.56;62.43
63306;BME280;50735;52.060;1.248;2022-10-30T00:53:46;101227.52;;;14.76;62.46
63306;BME280;50735;52.060;1.248;2022-10-30T00:56:15;101211.84;;;14.46;62.51
63306;BME280;50735;52.060;1.248;2022-10-30T00:58:46;101219.93;;;14.45;63.10
63306;BME280;50735;52.060;1.248;2022-10-30T01:01:16;101218.67;;;14.65;63.07
63306;BME280;50735;52.060;1.248;2022-10-30T01:03:45;101220.06;;;14.40;63.05
63306;BME280;50735;52.060;1.248;2022-10-30T01:06:15;101212.83;;;14.09;63.30
63306;BME280;50735;52.060;1.248;2022-10-30T01:08:44;101218.90;;;14.55;63.08
63306;BME280;50735;52.060;1.248;2022-10-30T01:11:11;101224.67;;;14.44;62.88
63306;BME280;50735;52.060;1.248;2022-10-30T01:13:39;101220.44;;;14.49;62.80
63306;BME280;50735;52.060;1.248;2022-10-30T01:16:16;101221.33;;;14.53;63.02
63306;BME280;50735;52.060;1.248;2022-10-30T01:18:51;101215.00;;;14.50;62.05
63306;BME280;50735;52.060;1.248;2022-10-30T01:21:33;101207.51;;;14.86;61.98
63306;BME280;50735;52.060;1.248;2022-10-30T01:24:18;101200.66;;;14.70;61.92
63306;BME280;50735;52.060;1.248;2022-10-30T01:26:53;101183.84;;;14.49;61.82
63306;BME280;50735;52.060;1.248;2022-10-30T01:29:34;101185.33;;;14.91;61.72
63306;BME280;50735;52.060;1.248;2022-10-30T01:32:18;101200.47;;;14.32;62.76
63306;BME280;50735;52.060;1.248;2022-10-30T01:34:54;101200.76;;;14.49;62.29
63306;BME280;50735;52.060;1.248;2022-10-30T01:37:30;101204.65;;;14.37;62.65
63306;BME280;50735;52.060;1.248;2022-10-30T01:40:04;101207.23;;;14.54;62.13
63306;BME280;50735;52.060;1.248;2022-10-30T01:42:45;101205.22;;;14.26;62.41
63306;BME280;50735;52.060;1.248;2022-10-30T01:45:15;101201.82;;;14.55;62.66
63306;BME280;50735;52.060;1.248;2022-10-30T01:47:55;101186.93;;;14.70;62.21
63306;BME280;50735;52.060;1.248;2022-10-30T01:50:33;101181.12;;;14.55;61.99
63306;BME280;50735;52.060;1.248;2022-10-30T01:53:08;101186.07;;;14.31;62.18
63306;BME280;50735;52.060;1.248;2022-10-30T01:55:43;101186.73;;;14.38;62.46
63306;BME280;50735;52.060;1.248;2022-10-30T01:58:19;101184.19;;;14.46;62.08
63306;BME280;50735;52.060;1.248;2022-10-30T02:00:52;101196.15;;;14.56;61.74
63306;BME280;50735;52.060;1.248;2022-10-30T02:03:20;101203.48;;;14.84;61.54
63306;BME280;50735;52.060;1.248;2022-10-30T02:05:49;101207.45;;;14.56;61.80
63306;BME280;50735;52.060;1.248;2022-10-30T02:08:16;101215.42;;;14.72;61.30
63306;BME280;50735;52.060;1.248;2022-10-30T02:10:46;101219.69;;;15.00;61.09
63306;BME280;50735;52.060;1.248;2022-10-30T02:13:14;101214.77;;;14.59;61.04
63306;BME280;50735;52.060;1.248;2022-10-30T02:15:42;101198.28;;;14.91;61.19
63306;BME280;50735;52.060;1.248;2022-10-30T02:18:10;101179.11;;;15.04;60.80
63306;BME280;50735;52.060;1.248;2022-10-30T02:20:38;101173.00;;;15.12;60.67
63306;BME280;50735;52.060;1.248;2022-10-30T02:23:05;101167.52;;;14.84;60.37
63306;BME280;50735;52.060;1.248;2022-10-30T02:25:32;101167.77;;;14.96;60.02
63306;BME280;50735;52.060;1.248;2022-10-30T02:27:59;101179.29;;;14.93;60.04
63306;BME280;50735;52.060;1.248;2022-10-30T02:30:25;101187.02;;;15.11;59.97
63306;BME280;50735;52.060;1.248;2022-10-30T02:32:53;101182.87;;;14.84;60.34
63306;BME280;50735;52.060;1.248;2022-10-30T02:35:20;101161.17;;;14.87;60.13
63306;BME280;50735;52.060;1.248;2022-10-30T02:37:47;101164.30;;;15.21;59.73
63306;BME280;50735;52.060;1.248;2022-10-30T02:40:14;101169.71;;;15.04;59.52
63306;BME280;50735;52.060;1.248;2022-10-30T02:42:41;101168.51;;;15.28;59.42
63306;BME280;50735;52.060;1.248;2022-10-30T02:45:08;101179.78;;;15.30;59.30
63306;BME280;50735;52.060;1.248;2022-10-30T02:47:36;101184.50;;;15.36;59.15
63306;BME280;50735;52.060;1.248;2022-10-30T02:50:02;101183.36;;;15.62;58.99
63306;BME280;50735;52.060;1.248;2022-10-30T02:52:29;101197.91;;;15.52;58.81
63306;BME280;50735;52.060;1.248;2022-10-30T02:54:57;101198.24;;;15.52;58.71
63306;BME280;50735;52.060;1.248;2022-10-30T02:57:23;101200.65;;;15.52;58.83
63306;BME280;50735;52.060;1.248;2022-10-30T02:59:50;101196.74;;;15.27;59.02
63306;BME280;50735;52.060;1.248;2022-10-30T03:02:17;101194.88;;;15.46;58.95
63306;BME280;50735;52.060;1.248;2022-10-30T03:04:43;101193.18;;;15.25;58.78
63306;BME280;50735;52.060;1.248;2022-10-30T03:07:10;101196.87;;;15.24;58.84
63306;BME280;50735;52.060;1.248;2022-10-30T03:09:37;101186.39;;;15.44;58.70
63306;BME280;50735;52.060;1.248;2022-10-30T03:12:04;101179.60;;;15.25;58.83
63306;BME280;50735;52.060;1.248;2022-10-30T03:14:31;101185.07;;;15.42;58.81
63306;BME280;50735;52.060;1.248;2022-10-30T03:16:58;101184.29;;;15.26;58.74
63306;BME280;50735;52.060;1.248;2022-10-30T03:19:25;101188.44;;;15.34;58.57
63306;BME280;50735;52.060;1.248;2022-10-30T03:21:52;101172.01;;;15.30;58.81
63306;BME280;50735;52.060;1.248;2022-10-30T03:24:19;101184.52;;;15.20;58.90
63306;BME280;50735;52.060;1.248;2022-10-30T03:26:46;101201.99;;;15.46;59.29
63306;BME280;50735;52.060;1.248;2022-10-30T03:29:13;101194.97;;;15.05;59.33
63306;BME280;50735;52.060;1.248;2022-10-30T03:31:40;101186.98;;;15.06;59.15
63306;BME280;50735;52.060;1.248;2022-10-30T03:34:07;101182.64;;;15.03;59.93
63306;BME280;50735;52.060;1.248;2022-10-30T03:36:33;101168.90;;;14.91;59.81
63306;BME280;50735;52.060;1.248;2022-10-30T03:39:00;101153.15;;;14.81;59.73
63306;BME280;50735;52.060;1.248;2022-10-30T03:41:26;101153.59;;;15.20;59.62
63306;BME280;50735;52.060;1.248;2022-10-30T03:43:53;101157.30;;;15.11;59.35
63306;BME280;50735;52.060;1.248;2022-10-30T03:46:20;101169.03;;;15.15;59.31
63306;BME280;50735;52.060;1.248;2022-10-30T03:48:48;101172.77;;;14.97;59.19
63306;BME280;50735;52.060;1.248;2022-10-30T03:51:16;101189.85;;;14.91;59.41
63306;BME280;50735;52.060;1.248;2022-10-30T03:53:43;101187.82;;;15.10;59.42
63306;BME280;50735;52.060;1.248;2022-10-30T03:56:09;101187.74;;;15.12;59.49
63306;BME280;50735;52.060;1.248;2022-10-30T03:58:36;101177.81;;;14.74;59.93
63306;BME280;50735;52.060;1.248;2022-10-30T04:01:05;101191.28;;;15.04;59.57
63306;BME280;50735;52.060;1.248;2022-10-30T04:03:32;101191.98;;;15.18;59.83
63306;BME280;50735;52.060;1.248;2022-10-30T04:05:59;101193.05;;;14.88;60.61
63306;BME280;50735;52.060;1.248;2022-10-30T04:08:27;101189.61;;;15.14;60.07
63306;BME280;50735;52.060;1.248;2022-10-30T04:10:54;101180.86;;;15.11;60.45
63306;BME280;50735;52.060;1.248;2022-10-30T04:13:21;101176.88;;;14.66;60.71
63306;BME280;50735;52.060;1.248;2022-10-30T04:15:48;101182.76;;;14.85;60.89
63306;BME280;50735;52.060;1.248;2022-10-30T04:18:15;101189.33;;;15.10;60.58
63306;BME280;50735;52.060;1.248;2022-10-30T04:20:42;101191.90;;;15.01;60.42
63306;BME280;50735;52.060;1.248;2022-10-30T04:23:12;101181.32;;;14.78;61.11
63306;BME280;50735;52.060;1.248;2022-10-30T04:25:39;101172.46;;;14.95;61.17
63306;BME280;50735;52.060;1.248;2022-10-30T04:28:07;101172.76;;;15.17;61.08
63306;BME280;50735;52.060;1.248;2022-10-30T04:30:34;101177.88;;;14.80;61.12
63306;BME280;50735;52.060;1.248;2022-10-30T04:33:04;101165.17;;;15.06;60.92
63306;BME280;50735;52.060;1.248;2022-10-30T04:35:32;101160.15;;;14.89;61.54
63306;BME280;50735;52.060;1.248;2022-10-30T04:38:00;101164.00;;;14.70;61.47
63306;BME280;50735;52.060;1.248;2022-10-30T04:40:30;101164.55;;;14.82;61.43
63306;BME280;50735;52.060;1.248;2022-10-30T04:42:57;101160.13;;;14.83;61.66
63306;BME280;50735;52.060;1.248;2022-10-30T04:45:24;101170.78;;;14.72;61.37
63306;BME280;50735;52.060;1.248;2022-10-30T04:47:51;101167.07;;;14.95;61.23
63306;BME280;50735;52.060;1.248;2022-10-30T04:50:19;101164.21;;;15.22;60.97
63306;BME280;50735;52.060;1.248;2022-10-30T04:52:46;101164.88;;;15.01;60.98
63306;BME280;50735;52.060;1.248;2022-10-30T04:55:13;101159.35;;;15.24;60.77
63306;BME280;50735;52.060;1.248;2022-10-30T04:57:39;101158.48;;;15.10;61.47
63306;BME280;50735;52.060;1.248;2022-10-30T05:00:09;101151.86;;;14.94;61.80
63306;BME280;50735;52.060;1.248;2022-10-30T05:02:36;101147.50;;;14.65;61.77
63306;BME280;50735;52.060;1.248;2022-10-30T05:05:04;101149.94;;;15.00;61.69
63306;BME280;50735;52.060;1.248;2022-10-30T05:07:31;101156.20;;;14.74;61.17
63306;BME280;50735;52.060;1.248;2022-10-30T05:09:57;101162.69;;;14.97;61.06
63306;BME280;50735;52.060;1.248;2022-10-30T05:12:25;101166.28;;;15.05;61.50
63306;BME280;50735;52.060;1.248;2022-10-30T05:14:51;101161.67;;;14.93;61.08
63306;BME280;50735;52.060;1.248;2022-10-30T05:17:18;101157.98;;;14.83;62.20
63306;BME280;50735;52.060;1.248;2022-10-30T05:19:45;101159.57;;;14.65;62.25
63306;BME280;50735;52.060;1.248;2022-10-30T05:22:11;101169.33;;;14.48;61.98
63306;BME280;50735;52.060;1.248;2022-10-30T05:24:38;101175.17;;;14.86;61.90
63306;BME280;50735;52.060;1.248;2022-10-30T05:27:05;101174.02;;;14.93;61.68
63306;BME280;50735;52.060;1.248;2022-10-30T05:29:31;101168.64;;;14.57;61.48
63306;BME280;50735;52.060;1.248;2022-10-30T05:31:58;101168.69;;;14.58;61.51
63306;BME280;50735;52.060;1.248;2022-10-30T05:34:25;101172.54;;;14.84;61.77
63306;BME280;50735;52.060;1.248;2022-10-30T05:36:51;101170.80;;;14.85;61.80
63306;BME280;50735;52.060;1.248;2022-10-30T05:39:18;101170.50;;;14.68;61.49
63306;BME280;50735;52.060;1.248;2022-10-30T05:41:45;101166.14;;;14.86;61.70
63306;BME280;50735;52.060;1.248;2022-10-30T05:44:11;101163.99;;;14.84;61.67
63306;BME280;50735;52.060;1.248;2022-10-30T05:46:37;101164.38;;;14.68;61.80
63306;BME280;50735;52.060;1.248;2022-10-30T05:49:05;101161.16;;;14.71;61.75
63306;BME280;50735;52.060;1.248;2022-10-30T05:51:32;101156.67;;;14.37;62.14
63306;BME280;50735;52.060;1.248;2022-10-30T05:53:59;101157.79;;;14.43;62.57
63306;BME280;50735;52.060;1.248;2022-10-30T05:56:25;101160.35;;;14.07;63.67
63306;BME280;50735;52.060;1.248;2022-10-30T05:58:52;101168.58;;;14.03;63.56
63306;BME280;50735;52.060;1.248;2022-10-30T06:01:19;101163.24;;;14.06;63.61
63306;BME280;50735;52.060;1.248;2022-10-30T06:03:45;101162.55;;;14.17;63.32
63306;BME280;50735;52.060;1.248;2022-10-30T06:06:12;101165.73;;;14.31;62.89
63306;BME280;50735;52.060;1.248;2022-10-30T06:08:39;101167.85;;;14.24;63.13
63306;BME280;50735;52.060;1.248;2022-10-30T06:11:05;101171.83;;;14.20;63.14
63306;BME280;50735;52.060;1.248;2022-10-30T06:13:32;101173.95;;;14.22;62.87
63306;BME280;50735;52.060;1.248;2022-10-30T06:15:59;101169.79;;;14.12;63.24
63306;BME280;50735;52.060;1.248;2022-10-30T06:18:25;101161.62;;;14.18;63.00
63306;BME280;50735;52.060;1.248;2022-10-30T06:20:53;101172.85;;;14.15;63.20
63306;BME280;50735;52.060;1.248;2022-10-30T06:23:20;101172.70;;;13.99;63.77
63306;BME280;50735;52.060;1.248;2022-10-30T06:25:47;101167.30;;;14.18;63.10
63306;BME280;50735;52.060;1.248;2022-10-30T06:28:14;101176.73;;;14.26;62.75
63306;BME280;50735;52.060;1.248;2022-10-30T06:30:40;101170.93;;;14.45;62.79
63306;BME280;50735;52.060;1.248;2022-10-30T06:33:09;101170.31;;;14.23;62.86
63306;BME280;50735;52.060;1.248;2022-10-30T06:35:36;101181.51;;;14.07;63.25
63306;BME280;50735;52.060;1.248;2022-10-30T06:38:03;101193.81;;;13.84;63.87
63306;BME280;50735;52.060;1.248;2022-10-30T06:40:29;101199.68;;;13.69;64.16
63306;BME280;50735;52.060;1.248;2022-10-30T06:42:56;101203.06;;;13.95;63.93
63306;BME280;50735;52.060;1.248;2022-10-30T06:45:23;101206.05;;;13.64;64.31
63306;BME280;50735;52.060;1.248;2022-10-30T06:47:51;101201.22;;;13.59;64.29
63306;BME280;50735;52.060;1.248;2022-10-30T06:50:25;101195.89;;;13.84;64.29
63306;BME280;50735;52.060;1.248;2022-10-30T06:52:54;101197.69;;;13.48;64.85
63306;BME280;50735;52.060;1.248;2022-10-30T06:55:21;101201.57;;;13.49;65.35
63306;BME280;50735;52.060;1.248;2022-10-30T06:57:52;101199.83;;;13.61;65.03
63306;BME280;50735;52.060;1.248;2022-10-30T07:00:19;101179.51;;;13.44;65.02
63306;BME280;50735;52.060;1.248;2022-10-30T07:02:54;101176.55;;;13.54;64.71
63306;BME280;50735;52.060;1.248;2022-10-30T07:05:21;101186.55;;;13.65;64.38
63306;BME280;50735;52.060;1.248;2022-10-30T07:07:48;101191.03;;;13.98;64.84
63306;BME280;50735;52.060;1.248;2022-10-30T07:10:15;101198.01;;;13.68;64.50
63306;BME280;50735;52.060;1.248;2022-10-30T07:12:50;101200.00;;;13.86;65.01
63306;BME280;50735;52.060;1.248;2022-10-30T07:15:17;101201.56;;;13.66;64.92
63306;BME280;50735;52.060;1.248;2022-10-30T07:17:50;101198.78;;;13.68;65.01
63306;BME280;50735;52.060;1.248;2022-10-30T07:20:17;101199.21;;;13.91;64.18
63306;BME280;50735;52.060;1.248;2022-10-30T07:22:44;101197.94;;;13.86;65.09
63306;BME280;50735;52.060;1.248;2022-10-30T07:25:10;101209.16;;;13.49;65.71
63306;BME280;50735;52.060;1.248;2022-10-30T07:27:41;101212.81;;;13.42;66.04
63306;BME280;50735;52.060;1.248;2022-10-30T07:30:08;101206.11;;;13.65;65.41
63306;BME280;50735;52.060;1.248;2022-10-30T07:32:36;101198.75;;;13.82;64.94
63306;BME280;50735;52.060;1.248;2022-10-30T07:35:03;101206.37;;;14.02;64.99
63306;BME280;50735;52.060;1.248;2022-10-30T07:37:30;101218.50;;;14.32;64.57
63306;BME280;50735;52.060;1.248;2022-10-30T07:39:56;101226.57;;;13.95;64.45
63306;BME280;50735;52.060;1.248;2022-10-30T07:42:23;101230.11;;;13.77;65.04
63306;BME280;50735;52.060;1.248;2022-10-30T07:44:50;101228.04;;;13.74;65.14
63306;BME280;50735;52.060;1.248;2022-10-30T07:47:17;101233.13;;;13.67;65.05
63306;BME280;50735;52.060;1.248;2022-10-30T07:49:43;101234.94;;;13.94;65.15
63306;BME280;50735;52.060;1.248;2022-10-30T07:52:10;101241.36;;;13.65;65.26
63306;BME280;50735;52.060;1.248;2022-10-30T07:54:36;101240.96;;;13.70;65.52
63306;BME280;50735;52.060;1.248;2022-10-30T07:57:03;101247.84;;;13.70;65.44
63306;BME280;50735;52.060;1.248;2022-10-30T07:59:29;101261.13;;;13.53;65.89
63306;BME280;50735;52.060;1.248;2022-10-30T08:01:56;101264.16;;;13.99;65.39
63306;BME280;50735;52.060;1.248;2022-10-30T08:04:22;101272.55;;;13.78;66.04
63306;BME280;50735;52.060;1.248;2022-10-30T08:06:49;101284.81;;;13.43;66.47
63306;BME280;50735;52.060;1.248;2022-10-30T08:09:16;101288.20;;;13.78;66.00
63306;BME280;50735;52.060;1.248;2022-10-30T08:11:42;101289.59;;;13.59;65.92
63306;BME280;50735;52.060;1.248;2022-10-30T08:14:09;101292.53;;;13.71;66.43
63306;BME280;50735;52.060;1.248;2022-10-30T08:16:35;101289.75;;;13.62;65.99
63306;BME280;50735;52.060;1.248;2022-10-30T08:19:02;101292.92;;;13.58;66.36
63306;BME280;50735;52.060;1.248;2022-10-30T08:21:29;101291.48;;;13.57;66.14
63306;BME280;50735;52.060;1.248;2022-10-30T08:23:56;101309.11;;;13.68;66.49
63306;BME280;50735;52.060;1.248;2022-10-30T08:26:23;101316.91;;;13.17;67.19
63306;BME280;50735;52.060;1.248;2022-10-30T08:28:50;101309.42;;;13.44;66.92
63306;BME280;50735;52.060;1.248;2022-10-30T08:31:16;101311.43;;;12.94;67.01
63306;BME280;50735;52.060;1.248;2022-10-30T08:33:43;101305.10;;;13.00;65.67
63306;BME280;50735;52.060;1.248;2022-10-30T08:36:09;101282.89;;;12.91;64.83
63306;BME280;50735;52.060;1.248;2022-10-30T08:38:36;101269.26;;;12.99;64.30
63306;BME280;50735;52.060;1.248;2022-10-30T08:41:02;101271.70;;;13.28;64.44
63306;BME280;50735;52.060;1.248;2022-10-30T08:43:29;101274.40;;;13.15;64.20
63306;BME280;50735;52.060;1.248;2022-10-30T08:45:56;101270.97;;;13.22;64.04
63306;BME280;50735;52.060;1.248;2022-10-30T08:48:23;101269.67;;;13.37;64.70
63306;BME280;50735;52.060;1.248;2022-10-30T08:50:50;101270.47;;;13.53;64.57
63306;BME280;50735;52.060;1.248;2022-10-30T08:53:16;101274.86;;;13.94;64.61
63306;BME280;50735;52.060;1.248;2022-10-30T08:55:43;101270.80;;;13.87;64.42
63306;BME280;50735;52.060;1.248;2022-10-30T08:58:09;101266.68;;;13.50;64.26
63306;BME280;50735;52.060;1.248;2022-10-30T09:00:36;101263.83;;;13.62;64.07
63306;BME280;50735;52.060;1.248;2022-10-30T09:03:03;101266.78;;;13.53;63.77
63306;BME280;50735;52.060;1.248;2022-10-30T09:05:29;101261.18;;;13.60;63.39
63306;BME280;50735;52.060;1.248;2022-10-30T09:07:56;101260.67;;;13.36;63.46
63306;BME280;50735;52.060;1.248;2022-10-30T09:10:24;101264.74;;;13.72;63.13
63306;BME280;50735;52.060;1.248;2022-10-30T09:12:53;101263.80;;;13.66;63.05
63306;BME280;50735;52.060;1.248;2022-10-30T09:15:20;101265.59;;;13.33;63.86
63306;BME280;50735;52.060;1.248;2022-10-30T09:17:46;101268.27;;;13.43;63.73
63306;BME280;50735;52.060;1.248;2022-10-30T09:20:13;101265.56;;;13.06;64.10
63306;BME280;50735;52.060;1.248;2022-10-30T09:22:39;101265.14;;;13.65;63.71
63306;BME280;50735;52.060;1.248;2022-10-30T09:25:07;101266.50;;;13.46;63.76
63306;BME280;50735;52.060;1.248;2022-10-30T09:27:36;101264.86;;;13.39;63.35
63306;BME280;50735;52.060;1.248;2022-10-30T09:30:04;101265.65;;;13.47;63.89
63306;BME280;50735;52.060;1.248;2022-10-30T09:32:31;101269.97;;;13.45;64.25
63306;BME280;50735;52.060;1.248;2022-10-30T09:34:58;101273.00;;;13.41;64.91
63306;BME280;50735;52.060;1.248;2022-10-30T09:37:24;101260.62;;;13.28;65.43
63306;BME280;50735;52.060;1.248;2022-10-30T09:39:51;101266.44;;;13.23;66.79
63306;BME280;50735;52.060;1.248;2022-10-30T09:42:40;101276.93;;;13.55;64.90
63306;BME280;50735;52.060;1.248;2022-10-30T09:45:19;101272.96;;;13.46;65.31
63306;BME280;50735;52.060;1.248;2022-10-30T09:47:55;101273.10;;;13.53;65.02
63306;BME280;50735;52.060;1.248;2022-10-30T09:50:30;101274.73;;;13.27;65.46
63306;BME280;50735;52.060;1.248;2022-10-30T09:53:06;101274.31;;;13.29;64.99
63306;BME280;50735;52.060;1.248;2022-10-30T09:55:43;101279.91;;;13.27;65.36
63306;BME280;50735;52.060;1.248;2022-10-30T09:58:21;101274.78;;;13.20;65.74
63306;BME280;50735;52.060;1.248;2022-10-30T10:01:04;101281.83;;;13.03;66.35
63306;BME280;50735;52.060;1.248;2022-10-30T10:03:47;101287.85;;;12.58;67.26
63306;BME280;50735;52.060;1.248;2022-10-30T10:06:18;101280.12;;;13.09;66.21
63306;BME280;50735;52.060;1.248;2022-10-30T10:08:50;101277.16;;;13.34;65.48
63306;BME280;50735;52.060;1.248;2022-10-30T10:11:23;101269.94;;;12.87;65.64
63306;BME280;50735;52.060;1.248;2022-10-30T10:13:53;101276.96;;;12.94;65.55
63306;BME280;50735;52.060;1.248;2022-10-30T10:16:26;101271.84;;;13.06;65.59
63306;BME280;50735;52.060;1.248;2022-10-30T10:18:59;101263.50;;;12.96;64.91
63306;BME280;50735;52.060;1.248;2022-10-30T10:21:28;101252.22;;;12.90;64.65
63306;BME280;50735;52.060;1.248;2022-10-30T10:23:57;101267.19;;;12.75;63.06
63306;BME280;50735;52.060;1.248;2022-10-30T10:26:28;101272.64;;;12.43;64.46
63306;BME280;50735;52.060;1.248;2022-10-30T10:29:09;101269.19;;;12.74;64.92
63306;BME280;50735;52.060;1.248;2022-10-30T10:31:45;101285.78;;;12.75;64.10
63306;BME280;50735;52.060;1.248;2022-10-30T10:34:28;101289.36;;;12.59;63.13
63306;BME280;50735;52.060;1.248;2022-10-30T10:37:08;101286.27;;;12.45;63.63
63306;BME280;50735;52.060;1.248;2022-10-30T10:39:50;101293.32;;;12.54;63.26
63306;BME280;50735;52.060;1.248;2022-10-30T10:42:30;101291.04;;;12.44;63.52
63306;BME280;50735;52.060;1.248;2022-10-30T10:45:11;101274.69;;;12.40;63.77
63306;BME280;50735;52.060;1.248;2022-10-30T10:47:58;101272.39;;;12.19;64.51
63306;BME280;50735;52.060;1.248;2022-10-30T10:50:33;101261.31;;;11.95;64.64
63306;BME280;50735;52.060;1.248;2022-10-30T10:53:08;101249.85;;;11.32;66.51
63306;BME280;50735;52.060;1.248;2022-10-30T10:55:37;101246.36;;;11.74;65.86
63306;BME280;50735;52.060;1.248;2022-10-30T10:58:11;101245.71;;;12.32;66.46
63306;BME280;50735;52.060;1.248;2022-10-30T11:00:41;101229.85;;;12.53;64.33
63306;BME280;50735;52.060;1.248;2022-10-30T11:03:12;101228.83;;;12.57;64.53
63306;BME280;50735;52.060;1.248;2022-10-30T11:05:45;101232.66;;;12.33;65.05
63306;BME280;50735;52.060;1.248;2022-10-30T11:08:18;101217.68;;;12.31;65.55
63306;BME280;50735;52.060;1.248;2022-10-30T11:10:46;101225.40;;;11.88;66.17
63306;BME280;50735;52.060;1.248;2022-10-30T11:13:15;101224.46;;;11.99;66.09
63306;BME280;50735;52.060;1.248;2022-10-30T11:15:51;101226.33;;;11.71;66.38
63306;BME280;50735;52.060;1.248;2022-10-30T11:18:20;101232.58;;;11.68;66.50
63306;BME280;50735;52.060;1.248;2022-10-30T11:20:54;101240.27;;;11.69;67.02
63306;BME280;50735;52.060;1.248;2022-10-30T11:23:40;101246.12;;;11.61;66.59
63306;BME280;50735;52.060;1.248;2022-10-30T11:26:26;101253.41;;;11.76;66.20
63306;BME280;50735;52.060;1.248;2022-10-30T11:28:56;101264.10;;;12.12;66.16
63306;BME280;50735;52.060;1.248;2022-10-30T11:31:25;101261.98;;;11.39;66.14
63306;BME280;50735;52.060;1.248;2022-10-30T11:33:53;101264.80;;;12.05;68.08
63306;BME280;50735;52.060;1.248;2022-10-30T11:36:22;101265.89;;;12.12;65.35
63306;BME280;50735;52.060;1.248;2022-10-30T11:38:50;101262.97;;;12.55;64.10
63306;BME280;50735;52.060;1.248;2022-10-30T11:41:18;101258.40;;;12.43;63.62
63306;BME280;50735;52.060;1.248;2022-10-30T11:43:47;101272.90;;;12.26;63.54
63306;BME280;50735;52.060;1.248;2022-10-30T11:46:20;101270.95;;;12.34;63.52
63306;BME280;50735;52.060;1.248;2022-10-30T11:48:48;101272.41;;;12.38;63.54
63306;BME280;50735;52.060;1.248;2022-10-30T11:51:30;101293.37;;;12.11;64.27
63306;BME280;50735;52.060;1.248;2022-10-30T11:53:59;101308.52;;;12.04;64.68
63306;BME280;50735;52.060;1.248;2022-10-30T11:56:27;101296.07;;;12.38;64.47
63306;BME280;50735;52.060;1.248;2022-10-30T11:58:56;101281.49;;;12.36;64.02
63306;BME280;50735;52.060;1.248;2022-10-30T12:01:25;101249.40;;;12.45;63.93
63306;BME280;50735;52.060;1.248;2022-10-30T12:03:54;101234.93;;;12.48;63.91
63306;BME280;50735;52.060;1.248;2022-10-30T12:06:26;101253.28;;;12.41;63.54
63306;BME280;50735;52.060;1.248;2022-10-30T12:09:03;101280.48;;;12.24;63.82
63306;BME280;50735;52.060;1.248;2022-10-30T12:11:36;101260.06;;;12.60;63.91
63306;BME280;50735;52.060;1.248;2022-10-30T12:14:04;101265.02;;;12.40;63.45
63306;BME280;50735;52.060;1.248;2022-10-30T12:16:32;101256.93;;;12.54;63.73
63306;BME280;50735;52.060;1.248;2022-10-30T12:19:01;101260.68;;;12.61;63.26
63306;BME280;50735;52.060;1.248;2022-10-30T12:21:34;101266.53;;;12.20;63.57
63306;BME280;50735;52.060;1.248;2022-10-30T12:24:03;101281.71;;;12.11;63.48
63306;BME280;50735;52.060;1.248;2022-10-30T12:26:32;101288.40;;;12.32;62.75
63306;BME280;50735;52.060;1.248;2022-10-30T12:29:02;101276.65;;;12.10;63.12
63306;BME280;50735;52.060;1.248;2022-10-30T12:31:35;101258.60;;;12.19;62.61
63306;BME280;50735;52.060;1.248;2022-10-30T12:34:11;101269.60;;;12.41;62.93
63306;BME280;50735;52.060;1.248;2022-10-30T12:36:46;101296.07;;;12.20;62.91
63306;BME280;50735;52.060;1.248;2022-10-30T12:39:20;101300.19;;;12.06;62.97
63306;BME280;50735;52.060;1.248;2022-10-30T12:41:55;101284.48;;;12.22;63.18
63306;BME280;50735;52.060;1.248;2022-10-30T12:44:26;101272.73;;;12.17;63.04
63306;BME280;50735;52.060;1.248;2022-10-30T12:46:58;101262.87;;;12.24;63.14
63306;BME280;50735;52.060;1.248;2022-10-30T12:49:32;101236.40;;;12.40;62.95
63306;BME280;50735;52.060;1.248;2022-10-30T12:52:09;101228.36;;;12.24;62.98
63306;BME280;50735;52.060;1.248;2022-10-30T12:54:42;101217.34;;;12.16;63.15
63306;BME280;50735;52.060;1.248;2022-10-30T12:57:13;101254.02;;;12.29;63.28
63306;BME280;50735;52.060;1.248;2022-10-30T12:59:49;101251.71;;;12.42;63.38
63306;BME280;50735;52.060;1.248;2022-10-30T13:02:28;101248.70;;;12.42;62.70